sensor_id;sensor_type;location;lat;lon;timestamp;pressure;altitude;pressure_sealevel;temperature;humidity
5952;BME280;3001;42.622;23.194;2023-02-10T00:00:15;92782.94;;;-6.45;80.35
5952;BME280;3001;42.622;23.194;2023-02-10T00:02:42;92775.16;;;-6.44;80.18
5952;BME280;3001;42.622;23.194;2023-02-10T00:05:09;92774.41;;;-6.44;79.30
5952;BME280;3001;42.622;23.194;2023-02-10T00:07:35;92771.78;;;-6.59;81.10
5952;BME280;3001;42.622;23.194;2023-02-10T00:10:02;92763.91;;;-6.33;80.60
5952;BME280;3001;42.622;23.194;2023-02-10T00:12:29;92760.34;;;-6.16;79.85
5952;BME280;3001;42.622;23.194;2023-02-10T00:14:56;92754.56;;;-6.25;79.45
5952;BME280;3001;42.622;23.194;2023-02-10T00:17:24;92764.50;;;-6.23;79.44
5952;BME280;3001;42.622;23.194;2023-02-10T00:19:51;92759.94;;;-6.28;79.60
5952;BME280;3001;42.622;23.194;2023-02-10T00:22:17;92756.78;;;-6.30;79.86
5952;BME280;3001;42.622;23.194;2023-02-10T00:24:44;92758.97;;;-6.27;80.20
5952;BME280;3001;42.622;23.194;2023-02-10T00:27:11;92749.81;;;-6.28;78.85
5952;BME280;3001;42.622;23.194;2023-02-10T00:29:37;92746.56;;;-6.36;80.13
5952;BME280;3001;42.622;23.194;2023-02-10T00:32:04;92742.38;;;-6.52;81.76
5952;BME280;3001;42.622;23.194;2023-02-10T00:34:32;92747.25;;;-6.50;82.26
5952;BME280;3001;42.622;23.194;2023-02-10T00:36:59;92744.31;;;-6.62;82.28
5952;BME280;3001;42.622;23.194;2023-02-10T00:39:25;92738.03;;;-6.73;82.26
5952;BME280;3001;42.622;23.194;2023-02-10T00:41:52;92738.50;;;-6.78;82.21
5952;BME280;3001;42.622;23.194;2023-02-10T00:44:19;92728.13;;;-6.83;83.65
5952;BME280;3001;42.622;23.194;2023-02-10T00:46:45;92732.06;;;-6.80;83.33
5952;BME280;3001;42.622;23.194;2023-02-10T00:49:12;92728.41;;;-6.78;83.22
5952;BME280;3001;42.622;23.194;2023-02-10T00:51:40;92715.00;;;-6.78;82.85
5952;BME280;3001;42.622;23.194;2023-02-10T00:54:08;92718.97;;;-6.84;83.20
5952;BME280;3001;42.622;23.194;2023-02-10T00:56:35;92711.72;;;-6.87;82.95
5952;BME280;3001;42.622;23.194;2023-02-10T00:59:01;92715.97;;;-6.87;83.70
5952;BME280;3001;42.622;23.194;2023-02-10T01:01:28;92718.69;;;-6.89;83.06
5952;BME280;3001;42.622;23.194;2023-02-10T01:03:54;92707.00;;;-6.90;83.81
5952;BME280;3001;42.622;23.194;2023-02-10T01:06:21;92704.47;;;-6.90;83.77
5952;BME280;3001;42.622;23.194;2023-02-10T01:08:49;92714.19;;;-6.79;83.41
5952;BME280;3001;42.622;23.194;2023-02-10T01:11:16;92712.47;;;-6.78;83.86
5952;BME280;3001;42.622;23.194;2023-02-10T01:13:43;92719.34;;;-6.65;83.86
5952;BME280;3001;42.622;23.194;2023-02-10T01:16:12;92716.47;;;-6.54;82.71
5952;BME280;3001;42.622;23.194;2023-02-10T01:18:41;92712.50;;;-6.48;82.11
5952;BME280;3001;42.622;23.194;2023-02-10T01:21:08;92712.31;;;-6.47;82.38
5952;BME280;3001;42.622;23.194;2023-02-10T01:23:36;92715.31;;;-6.43;80.93
5952;BME280;3001;42.622;23.194;2023-02-10T01:26:04;92714.81;;;-6.39;80.55
5952;BME280;3001;42.622;23.194;2023-02-10T01:28:31;92707.41;;;-6.40;80.47
5952;BME280;3001;42.622;23.194;2023-02-10T01:30:57;92708.03;;;-6.38;81.45
5952;BME280;3001;42.622;23.194;2023-02-10T01:33:24;92704.09;;;-6.41;80.73
5952;BME280;3001;42.622;23.194;2023-02-10T01:35:51;92703.78;;;-6.46;81.08
5952;BME280;3001;42.622;23.194;2023-02-10T01:38:17;92692.16;;;-6.55;83.04
5952;BME280;3001;42.622;23.194;2023-02-10T01:40:47;92687.88;;;-6.54;83.09
5952;BME280;3001;42.622;23.194;2023-02-10T01:43:16;92704.19;;;-6.57;81.25
5952;BME280;3001;42.622;23.194;2023-02-10T01:45:43;92699.59;;;-6.61;81.28
5952;BME280;3001;42.622;23.194;2023-02-10T01:48:11;92697.13;;;-6.69;81.21
5952;BME280;3001;42.622;23.194;2023-02-10T01:50:41;92694.75;;;-6.71;81.47
5952;BME280;3001;42.622;23.194;2023-02-10T01:53:09;92698.41;;;-6.73;82.82
5952;BME280;3001;42.622;23.194;2023-02-10T01:55:39;92699.72;;;-6.85;82.16
5952;BME280;3001;42.622;23.194;2023-02-10T01:58:10;92691.66;;;-6.88;81.57
5952;BME280;3001;42.622;23.194;2023-02-10T02:00:38;92681.28;;;-6.93;81.89
5952;BME280;3001;42.622;23.194;2023-02-10T02:03:06;92679.72;;;-6.94;82.63
5952;BME280;3001;42.622;23.194;2023-02-10T02:05:34;92684.94;;;-7.04;82.53
5952;BME280;3001;42.622;23.194;2023-02-10T02:08:04;92676.28;;;-7.01;82.82
5952;BME280;3001;42.622;23.194;2023-02-10T02:10:45;92678.78;;;-7.01;82.19
5952;BME280;3001;42.622;23.194;2023-02-10T02:13:19;92678.00;;;-7.02;82.69
5952;BME280;3001;42.622;23.194;2023-02-10T02:15:58;92680.22;;;-7.07;82.47
5952;BME280;3001;42.622;23.194;2023-02-10T02:18:33;92679.13;;;-7.12;82.55
5952;BME280;3001;42.622;23.194;2023-02-10T02:24:41;92673.59;;;-7.16;83.97
5952;BME280;3001;42.622;23.194;2023-02-10T02:27:42;92675.50;;;-7.10;83.53
5952;BME280;3001;42.622;23.194;2023-02-10T02:30:45;92668.06;;;-7.03;82.64
5952;BME280;3001;42.622;23.194;2023-02-10T02:33:19;92684.28;;;-6.98;81.94
5952;BME280;3001;42.622;23.194;2023-02-10T02:35:53;92677.81;;;-6.92;81.95
5952;BME280;3001;42.622;23.194;2023-02-10T02:38:21;92668.31;;;-6.90;82.16
5952;BME280;3001;42.622;23.194;2023-02-10T02:40:47;92676.69;;;-6.90;81.64
5952;BME280;3001;42.622;23.194;2023-02-10T02:43:14;92668.50;;;-6.92;82.01
5952;BME280;3001;42.622;23.194;2023-02-10T02:45:47;92666.94;;;-7.01;82.37
5952;BME280;3001;42.622;23.194;2023-02-10T02:48:30;92667.75;;;-7.08;82.36
5952;BME280;3001;42.622;23.194;2023-02-10T02:51:04;92667.47;;;-7.13;82.69
5952;BME280;3001;42.622;23.194;2023-02-10T02:53:37;92665.41;;;-7.18;82.70
5952;BME280;3001;42.622;23.194;2023-02-10T02:56:14;92664.47;;;-7.17;82.77
5952;BME280;3001;42.622;23.194;2023-02-10T02:58:50;92659.75;;;-7.12;82.65
5952;BME280;3001;42.622;23.194;2023-02-10T03:01:22;92664.16;;;-7.14;82.26
5952;BME280;3001;42.622;23.194;2023-02-10T03:03:53;92659.59;;;-7.18;82.55
5952;BME280;3001;42.622;23.194;2023-02-10T03:06:20;92661.94;;;-7.17;83.10
5952;BME280;3001;42.622;23.194;2023-02-10T03:08:47;92660.50;;;-7.11;82.09
5952;BME280;3001;42.622;23.194;2023-02-10T03:11:14;92655.31;;;-7.10;81.83
5952;BME280;3001;42.622;23.194;2023-02-10T03:13:41;92667.31;;;-7.12;81.33
5952;BME280;3001;42.622;23.194;2023-02-10T03:16:08;92659.38;;;-7.01;80.61
5952;BME280;3001;42.622;23.194;2023-02-10T03:18:34;92648.19;;;-7.06;82.21
5952;BME280;3001;42.622;23.194;2023-02-10T03:21:03;92677.31;;;-6.88;80.75
5952;BME280;3001;42.622;23.194;2023-02-10T03:23:30;92673.56;;;-6.92;80.30
5952;BME280;3001;42.622;23.194;2023-02-10T03:25:57;92677.03;;;-6.93;79.75
5952;BME280;3001;42.622;23.194;2023-02-10T03:28:24;92676.38;;;-6.95;80.07
5952;BME280;3001;42.622;23.194;2023-02-10T03:30:51;92644.75;;;-7.13;80.08
5952;BME280;3001;42.622;23.194;2023-02-10T03:33:19;92663.66;;;-7.01;80.26
5952;BME280;3001;42.622;23.194;2023-02-10T03:35:46;92661.28;;;-7.03;80.44
5952;BME280;3001;42.622;23.194;2023-02-10T03:38:14;92665.50;;;-6.95;79.24
5952;BME280;3001;42.622;23.194;2023-02-10T03:40:41;92655.56;;;-6.97;79.75
5952;BME280;3001;42.622;23.194;2023-02-10T03:43:08;92654.00;;;-6.98;80.51
5952;BME280;3001;42.622;23.194;2023-02-10T03:45:34;92652.13;;;-7.04;80.28
5952;BME280;3001;42.622;23.194;2023-02-10T03:48:01;92646.78;;;-7.09;80.43
5952;BME280;3001;42.622;23.194;2023-02-10T03:50:28;92645.38;;;-7.11;80.79
5952;BME280;3001;42.622;23.194;2023-02-10T03:52:55;92645.53;;;-7.13;81.03
5952;BME280;3001;42.622;23.194;2023-02-10T03:55:23;92640.94;;;-7.09;80.68
5952;BME280;3001;42.622;23.194;2023-02-10T03:57:49;92636.69;;;-7.09;80.13
5952;BME280;3001;42.622;23.194;2023-02-10T04:00:16;92636.41;;;-7.14;80.67
5952;BME280;3001;42.622;23.194;2023-02-10T04:02:44;92635.59;;;-7.14;80.24
5952;BME280;3001;42.622;23.194;2023-02-10T04:05:10;92640.78;;;-7.08;80.19
5952;BME280;3001;42.622;23.194;2023-02-10T04:07:37;92637.94;;;-7.05;80.29
5952;BME280;3001;42.622;23.194;2023-02-10T04:10:04;92634.44;;;-7.04;79.17
5952;BME280;3001;42.622;23.194;2023-02-10T04:12:33;92639.06;;;-7.15;80.37
5952;BME280;3001;42.622;23.194;2023-02-10T04:14:59;92628.94;;;-7.07;78.75
5952;BME280;3001;42.622;23.194;2023-02-10T04:17:26;92631.66;;;-7.09;78.45
5952;BME280;3001;42.622;23.194;2023-02-10T04:19:53;92630.09;;;-7.18;79.08
5952;BME280;3001;42.622;23.194;2023-02-10T04:22:19;92638.13;;;-7.14;79.30
5952;BME280;3001;42.622;23.194;2023-02-10T04:24:46;92638.31;;;-7.24;79.38
5952;BME280;3001;42.622;23.194;2023-02-10T04:27:13;92631.22;;;-7.28;79.73
5952;BME280;3001;42.622;23.194;2023-02-10T04:29:41;92624.63;;;-7.37;80.83
5952;BME280;3001;42.622;23.194;2023-02-10T04:32:08;92631.28;;;-7.44;81.02
5952;BME280;3001;42.622;23.194;2023-02-10T04:34:34;92632.72;;;-7.50;81.69
5952;BME280;3001;42.622;23.194;2023-02-10T04:37:01;92626.44;;;-7.54;81.46
5952;BME280;3001;42.622;23.194;2023-02-10T04:39:28;92629.56;;;-7.60;81.86
5952;BME280;3001;42.622;23.194;2023-02-10T04:41:55;92631.47;;;-7.62;83.35
5952;BME280;3001;42.622;23.194;2023-02-10T04:44:21;92628.81;;;-7.60;82.89
5952;BME280;3001;42.622;23.194;2023-02-10T04:46:49;92631.94;;;-7.58;83.19
5952;BME280;3001;42.622;23.194;2023-02-10T04:49:17;92634.63;;;-7.52;83.05
5952;BME280;3001;42.622;23.194;2023-02-10T04:51:43;92640.72;;;-7.46;81.13
5952;BME280;3001;42.622;23.194;2023-02-10T04:54:10;92642.00;;;-7.42;80.32
5952;BME280;3001;42.622;23.194;2023-02-10T04:56:37;92651.00;;;-7.48;80.58
5952;BME280;3001;42.622;23.194;2023-02-10T04:59:04;92644.84;;;-7.53;81.05
5952;BME280;3001;42.622;23.194;2023-02-10T05:01:31;92647.56;;;-7.55;82.12
5952;BME280;3001;42.622;23.194;2023-02-10T05:04:00;92644.22;;;-7.55;81.32
5952;BME280;3001;42.622;23.194;2023-02-10T05:06:26;92648.47;;;-7.56;81.30
5952;BME280;3001;42.622;23.194;2023-02-10T05:08:53;92645.97;;;-7.56;81.52
5952;BME280;3001;42.622;23.194;2023-02-10T05:11:20;92653.84;;;-7.59;81.25
5952;BME280;3001;42.622;23.194;2023-02-10T05:13:46;92656.81;;;-7.47;81.07
5952;BME280;3001;42.622;23.194;2023-02-10T05:16:14;92650.69;;;-7.45;80.48
5952;BME280;3001;42.622;23.194;2023-02-10T05:18:41;92651.28;;;-7.43;81.02
5952;BME280;3001;42.622;23.194;2023-02-10T05:21:12;92664.53;;;-7.41;80.37
5952;BME280;3001;42.622;23.194;2023-02-10T05:23:40;92673.19;;;-7.27;79.95
5952;BME280;3001;42.622;23.194;2023-02-10T05:26:07;92675.69;;;-7.19;80.61
5952;BME280;3001;42.622;23.194;2023-02-10T05:28:34;92678.03;;;-7.10;79.14
5952;BME280;3001;42.622;23.194;2023-02-10T05:31:01;92691.91;;;-7.06;77.46
5952;BME280;3001;42.622;23.194;2023-02-10T05:33:29;92684.31;;;-7.06;77.36
5952;BME280;3001;42.622;23.194;2023-02-10T05:35:55;92681.19;;;-7.16;77.87
5952;BME280;3001;42.622;23.194;2023-02-10T05:38:23;92679.31;;;-7.22;79.00
5952;BME280;3001;42.622;23.194;2023-02-10T05:40:51;92685.97;;;-7.29;79.41
5952;BME280;3001;42.622;23.194;2023-02-10T05:43:18;92687.72;;;-7.37;80.40
5952;BME280;3001;42.622;23.194;2023-02-10T05:45:45;92690.72;;;-7.42;80.80
5952;BME280;3001;42.622;23.194;2023-02-10T05:48:12;92686.63;;;-7.43;81.63
5952;BME280;3001;42.622;23.194;2023-02-10T05:50:39;92689.16;;;-7.35;80.31
5952;BME280;3001;42.622;23.194;2023-02-10T05:53:06;92688.19;;;-7.34;79.49
5952;BME280;3001;42.622;23.194;2023-02-10T05:55:35;92690.41;;;-7.39;79.88
5952;BME280;3001;42.622;23.194;2023-02-10T05:58:02;92698.59;;;-7.37;80.89
5952;BME280;3001;42.622;23.194;2023-02-10T06:00:28;92695.88;;;-7.27;80.25
5952;BME280;3001;42.622;23.194;2023-02-10T06:02:55;92692.28;;;-7.41;81.15
5952;BME280;3001;42.622;23.194;2023-02-10T06:05:22;92696.97;;;-7.22;80.91
5952;BME280;3001;42.622;23.194;2023-02-10T06:07:48;92699.81;;;-7.09;80.78
5952;BME280;3001;42.622;23.194;2023-02-10T06:10:15;92712.06;;;-6.90;78.92
5952;BME280;3001;42.622;23.194;2023-02-10T06:12:43;92713.94;;;-6.92;78.11
5952;BME280;3001;42.622;23.194;2023-02-10T06:15:10;92719.31;;;-6.95;79.01
5952;BME280;3001;42.622;23.194;2023-02-10T06:17:36;92723.72;;;-6.89;78.93
5952;BME280;3001;42.622;23.194;2023-02-10T06:20:05;92729.22;;;-6.85;79.44
5952;BME280;3001;42.622;23.194;2023-02-10T06:22:32;92722.47;;;-6.93;79.00
5952;BME280;3001;42.622;23.194;2023-02-10T06:24:58;92723.09;;;-6.91;78.90
5952;BME280;3001;42.622;23.194;2023-02-10T06:27:25;92727.63;;;-6.86;80.10
5952;BME280;3001;42.622;23.194;2023-02-10T06:29:53;92725.44;;;-6.89;79.93
5952;BME280;3001;42.622;23.194;2023-02-10T06:32:20;92733.97;;;-6.82;80.07
5952;BME280;3001;42.622;23.194;2023-02-10T06:34:46;92729.00;;;-6.68;78.96
5952;BME280;3001;42.622;23.194;2023-02-10T06:37:13;92727.72;;;-6.64;79.20
5952;BME280;3001;42.622;23.194;2023-02-10T06:39:39;92727.09;;;-6.66;79.79
5952;BME280;3001;42.622;23.194;2023-02-10T06:42:06;92729.25;;;-6.55;80.52
5952;BME280;3001;42.622;23.194;2023-02-10T06:44:33;92728.00;;;-6.51;78.68
5952;BME280;3001;42.622;23.194;2023-02-10T06:47:01;92735.72;;;-6.53;79.57
5952;BME280;3001;42.622;23.194;2023-02-10T06:49:28;92742.81;;;-6.48;79.14
5952;BME280;3001;42.622;23.194;2023-02-10T06:51:54;92746.19;;;-6.56;79.18
5952;BME280;3001;42.622;23.194;2023-02-10T06:54:21;92740.78;;;-6.53;79.07
5952;BME280;3001;42.622;23.194;2023-02-10T06:56:48;92741.25;;;-6.49;78.83
5952;BME280;3001;42.622;23.194;2023-02-10T06:59:15;92746.06;;;-6.32;77.59
5952;BME280;3001;42.622;23.194;2023-02-10T07:01:42;92752.69;;;-6.31;77.69
5952;BME280;3001;42.622;23.194;2023-02-10T07:04:10;92751.28;;;-6.33;78.50
5952;BME280;3001;42.622;23.194;2023-02-10T07:06:37;92750.75;;;-6.21;77.73
5952;BME280;3001;42.622;23.194;2023-02-10T07:09:04;92747.44;;;-6.21;78.78
5952;BME280;3001;42.622;23.194;2023-02-10T07:11:31;92746.19;;;-6.25;78.27
5952;BME280;3001;42.622;23.194;2023-02-10T07:13:58;92745.09;;;-6.23;79.07
5952;BME280;3001;42.622;23.194;2023-02-10T07:16:25;92749.81;;;-6.20;79.41
5952;BME280;3001;42.622;23.194;2023-02-10T07:18:53;92742.72;;;-6.24;79.98
5952;BME280;3001;42.622;23.194;2023-02-10T07:21:21;92736.09;;;-6.25;80.58
5952;BME280;3001;42.622;23.194;2023-02-10T07:23:47;92739.84;;;-6.21;81.04
5952;BME280;3001;42.622;23.194;2023-02-10T07:26:14;92744.84;;;-6.13;80.65
5952;BME280;3001;42.622;23.194;2023-02-10T07:28:43;92743.41;;;-6.08;81.01
5952;BME280;3001;42.622;23.194;2023-02-10T07:31:10;92743.06;;;-6.05;80.83
5952;BME280;3001;42.622;23.194;2023-02-10T07:33:36;92746.78;;;-5.93;80.07
5952;BME280;3001;42.622;23.194;2023-02-10T07:36:05;92742.69;;;-5.94;80.03
5952;BME280;3001;42.622;23.194;2023-02-10T07:38:33;92744.72;;;-5.89;80.97
5952;BME280;3001;42.622;23.194;2023-02-10T07:41:00;92747.88;;;-5.87;80.96
5952;BME280;3001;42.622;23.194;2023-02-10T07:43:27;92736.47;;;-5.83;80.83
5952;BME280;3001;42.622;23.194;2023-02-10T07:45:53;92740.81;;;-5.77;80.23
5952;BME280;3001;42.622;23.194;2023-02-10T07:48:20;92733.22;;;-5.77;80.91
5952;BME280;3001;42.622;23.194;2023-02-10T07:50:47;92738.72;;;-5.88;81.48
5952;BME280;3001;42.622;23.194;2023-02-10T07:53:14;92738.13;;;-5.76;81.86
5952;BME280;3001;42.622;23.194;2023-02-10T07:55:42;92738.28;;;-5.77;82.05
5952;BME280;3001;42.622;23.194;2023-02-10T07:58:09;92735.34;;;-5.81;82.65
5952;BME280;3001;42.622;23.194;2023-02-10T08:00:36;92735.00;;;-5.63;82.58
5952;BME280;3001;42.622;23.194;2023-02-10T08:03:03;92742.19;;;-5.52;83.24
5952;BME280;3001;42.622;23.194;2023-02-10T08:05:30;92752.28;;;-5.44;81.66
5952;BME280;3001;42.622;23.194;2023-02-10T08:07:57;92749.84;;;-5.38;81.45
5952;BME280;3001;42.622;23.194;2023-02-10T08:10:23;92755.94;;;-5.32;82.23
5952;BME280;3001;42.622;23.194;2023-02-10T08:12:51;92759.19;;;-5.38;81.71
5952;BME280;3001;42.622;23.194;2023-02-10T08:15:18;92760.50;;;-5.28;81.48
5952;BME280;3001;42.622;23.194;2023-02-10T08:17:47;92743.84;;;-5.22;82.49
5952;BME280;3001;42.622;23.194;2023-02-10T08:20:14;92744.81;;;-5.23;82.03
5952;BME280;3001;42.622;23.194;2023-02-10T08:22:41;92744.13;;;-5.03;82.11
5952;BME280;3001;42.622;23.194;2023-02-10T08:25:08;92746.16;;;-4.99;81.18
5952;BME280;3001;42.622;23.194;2023-02-10T08:27:34;92743.63;;;-4.99;80.90
5952;BME280;3001;42.622;23.194;2023-02-10T08:30:03;92746.78;;;-4.82;79.91
5952;BME280;3001;42.622;23.194;2023-02-10T08:32:31;92736.47;;;-4.81;80.04
5952;BME280;3001;42.622;23.194;2023-02-10T08:34:57;92739.38;;;-4.69;80.44
5952;BME280;3001;42.622;23.194;2023-02-10T08:37:25;92747.66;;;-4.61;80.69
5952;BME280;3001;42.622;23.194;2023-02-10T08:39:52;92740.38;;;-4.35;80.13
5952;BME280;3001;42.622;23.194;2023-02-10T08:42:18;92749.00;;;-4.15;79.73
5952;BME280;3001;42.622;23.194;2023-02-10T08:44:45;92757.38;;;-4.00;79.49
5952;BME280;3001;42.622;23.194;2023-02-10T08:47:13;92755.84;;;-3.80;76.93
5952;BME280;3001;42.622;23.194;2023-02-10T08:49:40;92747.13;;;-3.56;76.44
5952;BME280;3001;42.622;23.194;2023-02-10T08:52:07;92746.06;;;-3.62;76.43
5952;BME280;3001;42.622;23.194;2023-02-10T08:54:34;92752.22;;;-3.50;76.92
5952;BME280;3001;42.622;23.194;2023-02-10T08:57:01;92754.44;;;-3.20;75.57
5952;BME280;3001;42.622;23.194;2023-02-10T08:59:27;92744.03;;;-3.04;76.30
5952;BME280;3001;42.622;23.194;2023-02-10T09:01:54;92744.06;;;-2.70;74.72
5952;BME280;3001;42.622;23.194;2023-02-10T09:04:23;92745.16;;;-2.51;72.74
5952;BME280;3001;42.622;23.194;2023-02-10T09:06:50;92739.59;;;-2.27;72.75
5952;BME280;3001;42.622;23.194;2023-02-10T09:09:18;92745.63;;;-1.94;72.66
5952;BME280;3001;42.622;23.194;2023-02-10T09:11:48;92743.16;;;-1.62;71.27
5952;BME280;3001;42.622;23.194;2023-02-10T09:14:14;92740.28;;;-1.27;71.84
5952;BME280;3001;42.622;23.194;2023-02-10T09:16:41;92746.59;;;-0.97;70.96
5952;BME280;3001;42.622;23.194;2023-02-10T09:19:08;92739.31;;;-0.67;70.33
5952;BME280;3001;42.622;23.194;2023-02-10T09:21:36;92736.13;;;-0.43;70.66
5952;BME280;3001;42.622;23.194;2023-02-10T09:24:03;92741.53;;;-0.07;68.30
5952;BME280;3001;42.622;23.194;2023-02-10T09:26:30;92744.94;;;0.24;67.65
5952;BME280;3001;42.622;23.194;2023-02-10T09:28:57;92740.84;;;0.54;66.62
5952;BME280;3001;42.622;23.194;2023-02-10T09:31:24;92748.97;;;0.82;63.00
5952;BME280;3001;42.622;23.194;2023-02-10T09:33:50;92743.72;;;1.26;62.62
5952;BME280;3001;42.622;23.194;2023-02-10T09:36:19;92741.94;;;1.51;61.82
5952;BME280;3001;42.622;23.194;2023-02-10T09:38:47;92748.50;;;1.82;56.19
5952;BME280;3001;42.622;23.194;2023-02-10T09:41:23;92737.06;;;2.21;53.76
5952;BME280;3001;42.622;23.194;2023-02-10T09:44:03;92738.16;;;2.43;53.75
5952;BME280;3001;42.622;23.194;2023-02-10T09:46:46;92727.06;;;2.60;53.67
5952;BME280;3001;42.622;23.194;2023-02-10T09:49:31;92738.16;;;3.02;55.40
5952;BME280;3001;42.622;23.194;2023-02-10T09:52:11;92743.56;;;3.34;55.03
5952;BME280;3001;42.622;23.194;2023-02-10T09:54:43;92742.91;;;3.62;55.15
5952;BME280;3001;42.622;23.194;2023-02-10T09:57:12;92737.31;;;3.88;55.18
5952;BME280;3001;42.622;23.194;2023-02-10T09:59:41;92741.53;;;4.17;51.43
5952;BME280;3001;42.622;23.194;2023-02-10T10:02:13;92732.56;;;4.31;51.98
5952;BME280;3001;42.622;23.194;2023-02-10T10:04:43;92740.06;;;4.72;51.37
5952;BME280;3001;42.622;23.194;2023-02-10T10:07:15;92733.88;;;5.01;49.25
5952;BME280;3001;42.622;23.194;2023-02-10T10:09:51;92736.38;;;5.12;49.72
5952;BME280;3001;42.622;23.194;2023-02-10T10:12:23;92732.34;;;5.32;47.80
5952;BME280;3001;42.622;23.194;2023-02-10T10:14:50;92723.59;;;5.50;47.63
5952;BME280;3001;42.622;23.194;2023-02-10T10:17:44;92725.63;;;5.64;47.22
5952;BME280;3001;42.622;23.194;2023-02-10T10:20:32;92722.28;;;5.80;45.23
5952;BME280;3001;42.622;23.194;2023-02-10T10:23:11;92721.34;;;5.86;45.07
5952;BME280;3001;42.622;23.194;2023-02-10T10:25:56;92715.16;;;6.04;46.06
5952;BME280;3001;42.622;23.194;2023-02-10T10:28:31;92713.91;;;6.28;46.32
5952;BME280;3001;42.622;23.194;2023-02-10T10:31:06;92703.38;;;6.56;45.49
5952;BME280;3001;42.622;23.194;2023-02-10T10:33:38;92706.84;;;6.66;45.99
5952;BME280;3001;42.622;23.194;2023-02-10T10:36:11;92707.03;;;6.81;44.52
5952;BME280;3001;42.622;23.194;2023-02-10T10:38:43;92706.16;;;6.97;44.65
5952;BME280;3001;42.622;23.194;2023-02-10T10:41:13;92707.91;;;7.18;44.95
5952;BME280;3001;42.622;23.194;2023-02-10T10:43:44;92711.34;;;7.28;42.83
5952;BME280;3001;42.622;23.194;2023-02-10T10:46:14;92706.34;;;7.48;42.04
5952;BME280;3001;42.622;23.194;2023-02-10T10:48:43;92700.38;;;7.48;38.80
5952;BME280;3001;42.622;23.194;2023-02-10T10:51:11;92692.25;;;7.66;40.83
5952;BME280;3001;42.622;23.194;2023-02-10T10:53:40;92690.09;;;7.89;40.00
5952;BME280;3001;42.622;23.194;2023-02-10T10:56:15;92685.50;;;7.60;37.07
5952;BME280;3001;42.622;23.194;2023-02-10T10:58:44;92674.28;;;7.86;40.54
5952;BME280;3001;42.622;23.194;2023-02-10T11:01:12;92681.44;;;8.15;41.17
5952;BME280;3001;42.622;23.194;2023-02-10T11:03:39;92683.34;;;8.35;39.61
5952;BME280;3001;42.622;23.194;2023-02-10T11:06:08;92687.25;;;8.32;38.72
5952;BME280;3001;42.622;23.194;2023-02-10T11:08:38;92679.72;;;8.36;40.18
5952;BME280;3001;42.622;23.194;2023-02-10T11:11:09;92679.03;;;8.55;38.34
5952;BME280;3001;42.622;23.194;2023-02-10T11:13:40;92680.63;;;8.66;38.57
5952;BME280;3001;42.622;23.194;2023-02-10T11:16:13;92672.91;;;8.86;38.77
5952;BME280;3001;42.622;23.194;2023-02-10T11:18:51;92673.72;;;9.01;40.37
5952;BME280;3001;42.622;23.194;2023-02-10T11:21:18;92673.72;;;9.16;39.26
5952;BME280;3001;42.622;23.194;2023-02-10T11:23:47;92668.28;;;9.28;38.64
5952;BME280;3001;42.622;23.194;2023-02-10T11:26:19;92669.63;;;9.45;39.66
5952;BME280;3001;42.622;23.194;2023-02-10T11:28:47;92668.31;;;9.63;40.43
5952;BME280;3001;42.622;23.194;2023-02-10T11:31:25;92665.69;;;9.83;38.85
5952;BME280;3001;42.622;23.194;2023-02-10T11:33:56;92660.22;;;9.79;38.87
5952;BME280;3001;42.622;23.194;2023-02-10T11:36:34;92667.22;;;9.89;38.74
5952;BME280;3001;42.622;23.194;2023-02-10T11:39:04;92665.16;;;10.06;37.82
5952;BME280;3001;42.622;23.194;2023-02-10T11:41:32;92663.31;;;10.11;38.50
5952;BME280;3001;42.622;23.194;2023-02-10T11:44:01;92663.06;;;10.13;37.74
5952;BME280;3001;42.622;23.194;2023-02-10T11:46:29;92659.69;;;10.12;38.45
5952;BME280;3001;42.622;23.194;2023-02-10T11:48:59;92658.91;;;10.17;37.03
5952;BME280;3001;42.622;23.194;2023-02-10T11:51:27;92663.31;;;10.21;36.51
5952;BME280;3001;42.622;23.194;2023-02-10T11:53:53;92660.72;;;10.16;35.28
5952;BME280;3001;42.622;23.194;2023-02-10T11:56:24;92656.56;;;10.15;35.23
5952;BME280;3001;42.622;23.194;2023-02-10T11:59:15;92653.41;;;10.28;35.93
5952;BME280;3001;42.622;23.194;2023-02-10T12:01:52;92651.28;;;10.40;36.62
5952;BME280;3001;42.622;23.194;2023-02-10T12:07:35;92642.94;;;10.48;35.95
5952;BME280;3001;42.622;23.194;2023-02-10T12:10:09;92642.16;;;10.52;36.25
5952;BME280;3001;42.622;23.194;2023-02-10T12:12:44;92638.75;;;10.57;34.86
5952;BME280;3001;42.622;23.194;2023-02-10T12:15:25;92642.38;;;10.56;37.14
5952;BME280;3001;42.622;23.194;2023-02-10T12:18:03;92635.38;;;10.56;38.14
5952;BME280;3001;42.622;23.194;2023-02-10T12:20:41;92635.69;;;10.40;32.08
5952;BME280;3001;42.622;23.194;2023-02-10T12:23:27;92634.38;;;10.47;33.40
5952;BME280;3001;42.622;23.194;2023-02-10T12:26:05;92627.91;;;10.45;34.26
5952;BME280;3001;42.622;23.194;2023-02-10T12:28:45;92625.81;;;10.47;35.34
5952;BME280;3001;42.622;23.194;2023-02-10T12:31:23;92624.50;;;10.44;34.75
5952;BME280;3001;42.622;23.194;2023-02-10T12:34:11;92621.66;;;10.41;35.49
5952;BME280;3001;42.622;23.194;2023-02-10T12:36:45;92626.28;;;10.54;36.44
5952;BME280;3001;42.622;23.194;2023-02-10T12:39:22;92625.66;;;10.77;36.89
5952;BME280;3001;42.622;23.194;2023-02-10T12:41:58;92617.16;;;10.61;37.27
5952;BME280;3001;42.622;23.194;2023-02-10T12:44:37;92615.53;;;10.70;37.86
5952;BME280;3001;42.622;23.194;2023-02-10T12:47:19;92615.09;;;10.58;37.34
5952;BME280;3001;42.622;23.194;2023-02-10T12:50:00;92611.50;;;10.49;37.77
5952;BME280;3001;42.622;23.194;2023-02-10T12:52:33;92607.31;;;10.58;38.56
5952;BME280;3001;42.622;23.194;2023-02-10T12:55:05;92609.81;;;10.73;37.18
5952;BME280;3001;42.622;23.194;2023-02-10T12:57:42;92606.72;;;10.66;36.99
5952;BME280;3001;42.622;23.194;2023-02-10T13:00:14;92605.47;;;10.59;37.61
5952;BME280;3001;42.622;23.194;2023-02-10T13:02:46;92614.31;;;10.63;37.59
5952;BME280;3001;42.622;23.194;2023-02-10T13:05:18;92618.97;;;10.61;36.67
5952;BME280;3001;42.622;23.194;2023-02-10T13:07:49;92613.75;;;10.66;37.71
5952;BME280;3001;42.622;23.194;2023-02-10T13:10:24;92608.81;;;10.64;37.27
5952;BME280;3001;42.622;23.194;2023-02-10T13:12:52;92619.56;;;10.48;36.92
5952;BME280;3001;42.622;23.194;2023-02-10T13:27:16;92614.53;;;10.08;38.54
5952;BME280;3001;42.622;23.194;2023-02-10T13:29:53;92611.91;;;9.98;38.87
5952;BME280;3001;42.622;23.194;2023-02-10T13:32:29;92611.16;;;9.88;39.06
5952;BME280;3001;42.622;23.194;2023-02-10T13:35:01;92617.38;;;9.97;39.22
5952;BME280;3001;42.622;23.194;2023-02-10T13:37:36;92617.16;;;9.88;38.62
5952;BME280;3001;42.622;23.194;2023-02-10T13:40:13;92615.59;;;9.77;39.45
5952;BME280;3001;42.622;23.194;2023-02-10T13:42:49;92621.34;;;9.64;39.46